sensor_id;sensor_type;location;lat;lon;timestamp;temperature;humidity
5176;DHT22;2607;50.934;6.934;2023-11-19T00:00:36;10.40;99.90
5176;DHT22;2607;50.934;6.934;2023-11-19T00:03:01;10.50;99.90
5176;DHT22;2607;50.934;6.934;2023-11-19T00:05:27;10.50;99.90
5176;DHT22;2607;50.934;6.934;2023-11-19T00:07:55;10.50;99.90
5176;DHT22;2607;50.934;6.934;2023-11-19T00:10:21;10.50;99.90
5176;DHT22;2607;50.934;6.934;2023-11-19T00:12:48;10.50;99.90
5176;DHT22;2607;50.934;6.934;2023-11-19T00:15:14;10.50;99.90
5176;DHT22;2607;50.934;6.934;2023-11-19T00:17:41;10.60;99.90
5176;DHT22;2607;50.934;6.934;2023-11-19T00:20:10;10.60;99.90
5176;DHT22;2607;50.934;6.934;2023-11-19T00:22:36;10.60;99.90
5176;DHT22;2607;50.934;6.934;2023-11-19T00:25:02;10.60;99.90
5176;DHT22;2607;50.934;6.934;2023-11-19T00:27:28;10.60;99.90
5176;DHT22;2607;50.934;6.934;2023-11-19T00:29:54;10.60;99.90
5176;DHT22;2607;50.934;6.934;2023-11-19T00:32:20;10.60;99.90
5176;DHT22;2607;50.934;6.934;2023-11-19T00:34:45;10.60;99.90
5176;DHT22;2607;50.934;6.934;2023-11-19T00:37:13;10.60;99.90
5176;DHT22;2607;50.934;6.934;2023-11-19T00:39:39;10.70;99.90
5176;DHT22;2607;50.934;6.934;2023-11-19T00:42:04;10.70;99.90
5176;DHT22;2607;50.934;6.934;2023-11-19T00:44:30;10.70;99.90
5176;DHT22;2607;50.934;6.934;2023-11-19T00:46:56;10.70;99.90
5176;DHT22;2607;50.934;6.934;2023-11-19T00:49:21;10.70;99.90
5176;DHT22;2607;50.934;6.934;2023-11-19T00:51:47;10.70;99.90
5176;DHT22;2607;50.934;6.934;2023-11-19T00:54:12;10.70;99.90
5176;DHT22;2607;50.934;6.934;2023-11-19T00:56:38;10.70;99.90
5176;DHT22;2607;50.934;6.934;2023-11-19T00:59:03;10.70;99.90
5176;DHT22;2607;50.934;6.934;2023-11-19T01:01:29;10.70;99.90
5176;DHT22;2607;50.934;6.934;2023-11-19T01:03:55;10.80;99.90
5176;DHT22;2607;50.934;6.934;2023-11-19T01:06:32;10.80;99.90
5176;DHT22;2607;50.934;6.934;2023-11-19T01:08:58;10.80;99.90
5176;DHT22;2607;50.934;6.934;2023-11-19T01:11:24;10.80;99.90
5176;DHT22;2607;50.934;6.934;2023-11-19T01:13:50;10.80;99.90
5176;DHT22;2607;50.934;6.934;2023-11-19T01:16:16;10.90;99.90
5176;DHT22;2607;50.934;6.934;2023-11-19T01:18:42;10.90;99.90
5176;DHT22;2607;50.934;6.934;2023-11-19T01:21:07;10.90;99.90
5176;DHT22;2607;50.934;6.934;2023-11-19T01:23:34;10.90;99.90
5176;DHT22;2607;50.934;6.934;2023-11-19T01:25:59;11.00;99.90
5176;DHT22;2607;50.934;6.934;2023-11-19T01:28:25;11.00;99.90
5176;DHT22;2607;50.934;6.934;2023-11-19T01:30:51;11.00;99.90
5176;DHT22;2607;50.934;6.934;2023-11-19T01:33:16;11.00;99.90
5176;DHT22;2607;50.934;6.934;2023-11-19T01:35:42;11.10;99.90
5176;DHT22;2607;50.934;6.934;2023-11-19T01:38:08;11.10;99.90
5176;DHT22;2607;50.934;6.934;2023-11-19T01:40:37;11.10;99.90
5176;DHT22;2607;50.934;6.934;2023-11-19T01:43:03;11.20;99.90
5176;DHT22;2607;50.934;6.934;2023-11-19T01:45:30;11.20;99.90
5176;DHT22;2607;50.934;6.934;2023-11-19T01:48:00;11.20;99.90
5176;DHT22;2607;50.934;6.934;2023-11-19T01:50:29;11.20;99.90
5176;DHT22;2607;50.934;6.934;2023-11-19T01:52:55;11.20;99.90
5176;DHT22;2607;50.934;6.934;2023-11-19T01:55:23;11.30;99.90
5176;DHT22;2607;50.934;6.934;2023-11-19T01:57:49;11.30;99.90
5176;DHT22;2607;50.934;6.934;2023-11-19T02:00:16;11.30;99.90
5176;DHT22;2607;50.934;6.934;2023-11-19T02:02:46;11.40;99.90
5176;DHT22;2607;50.934;6.934;2023-11-19T02:05:12;11.40;99.90
5176;DHT22;2607;50.934;6.934;2023-11-19T02:07:38;11.50;99.90
5176;DHT22;2607;50.934;6.934;2023-11-19T02:10:04;11.60;99.90
5176;DHT22;2607;50.934;6.934;2023-11-19T02:12:31;11.60;99.90
5176;DHT22;2607;50.934;6.934;2023-11-19T02:15:01;11.70;99.90
5176;DHT22;2607;50.934;6.934;2023-11-19T02:17:28;11.70;99.90
5176;DHT22;2607;50.934;6.934;2023-11-19T02:19:56;11.80;99.90
5176;DHT22;2607;50.934;6.934;2023-11-19T02:22:22;11.80;99.90
5176;DHT22;2607;50.934;6.934;2023-11-19T02:24:54;11.80;99.90
5176;DHT22;2607;50.934;6.934;2023-11-19T02:27:54;11.80;99.90
5176;DHT22;2607;50.934;6.934;2023-11-19T02:30:22;11.90;99.90
5176;DHT22;2607;50.934;6.934;2023-11-19T02:32:52;11.90;99.90
5176;DHT22;2607;50.934;6.934;2023-11-19T02:35:18;11.90;99.90
5176;DHT22;2607;50.934;6.934;2023-11-19T02:37:44;11.90;99.90
5176;DHT22;2607;50.934;6.934;2023-11-19T02:40:10;11.90;99.90
5176;DHT22;2607;50.934;6.934;2023-11-19T02:42:36;11.90;99.90
5176;DHT22;2607;50.934;6.934;2023-11-19T02:45:01;11.90;99.90
5176;DHT22;2607;50.934;6.934;2023-11-19T02:47:27;11.90;99.90
5176;DHT22;2607;50.934;6.934;2023-11-19T02:49:55;11.90;99.90
5176;DHT22;2607;50.934;6.934;2023-11-19T02:52:21;11.90;99.90
5176;DHT22;2607;50.934;6.934;2023-11-19T02:54:47;11.90;99.90
5176;DHT22;2607;50.934;6.934;2023-11-19T02:57:12;11.90;99.90
5176;DHT22;2607;50.934;6.934;2023-11-19T02:59:39;11.80;99.90
5176;DHT22;2607;50.934;6.934;2023-11-19T03:02:07;11.80;99.90
5176;DHT22;2607;50.934;6.934;2023-11-19T03:04:37;11.80;99.90
5176;DHT22;2607;50.934;6.934;2023-11-19T03:07:06;11.70;99.90
5176;DHT22;2607;50.934;6.934;2023-11-19T03:09:35;11.70;99.90
5176;DHT22;2607;50.934;6.934;2023-11-19T03:12:01;11.70;99.90
5176;DHT22;2607;50.934;6.934;2023-11-19T03:14:27;11.70;99.90
5176;DHT22;2607;50.934;6.934;2023-11-19T03:16:53;11.70;99.90
5176;DHT22;2607;50.934;6.934;2023-11-19T03:19:18;11.70;99.90
5176;DHT22;2607;50.934;6.934;2023-11-19T03:21:44;11.60;99.90
5176;DHT22;2607;50.934;6.934;2023-11-19T03:24:12;11.60;99.90
5176;DHT22;2607;50.934;6.934;2023-11-19T03:26:38;11.60;99.90
5176;DHT22;2607;50.934;6.934;2023-11-19T03:29:03;11.60;99.90
5176;DHT22;2607;50.934;6.934;2023-11-19T03:31:29;11.60;99.90
5176;DHT22;2607;50.934;6.934;2023-11-19T03:33:54;11.60;99.90
5176;DHT22;2607;50.934;6.934;2023-11-19T03:36:20;11.60;99.90
5176;DHT22;2607;50.934;6.934;2023-11-19T03:38:45;11.60;99.90
5176;DHT22;2607;50.934;6.934;2023-11-19T03:41:15;11.70;99.90
5176;DHT22;2607;50.934;6.934;2023-11-19T03:43:41;11.70;99.90
5176;DHT22;2607;50.934;6.934;2023-11-19T03:46:19;11.70;99.90
5176;DHT22;2607;50.934;6.934;2023-11-19T03:48:49;11.70;99.90
5176;DHT22;2607;50.934;6.934;2023-11-19T03:51:15;11.70;99.90
5176;DHT22;2607;50.934;6.934;2023-11-19T03:53:46;11.70;99.90
5176;DHT22;2607;50.934;6.934;2023-11-19T03:56:12;11.70;99.90
5176;DHT22;2607;50.934;6.934;2023-11-19T03:58:38;11.70;99.90
5176;DHT22;2607;50.934;6.934;2023-11-19T04:01:22;11.70;99.90
5176;DHT22;2607;50.934;6.934;2023-11-19T04:03:47;11.70;99.90
5176;DHT22;2607;50.934;6.934;2023-11-19T04:06:13;11.70;99.90
5176;DHT22;2607;50.934;6.934;2023-11-19T04:08:38;11.70;99.90
5176;DHT22;2607;50.934;6.934;2023-11-19T04:11:05;11.70;99.90
5176;DHT22;2607;50.934;6.934;2023-11-19T04:13:31;11.80;99.90
5176;DHT22;2607;50.934;6.934;2023-11-19T04:15:56;11.80;99.90
5176;DHT22;2607;50.934;6.934;2023-11-19T04:18:22;11.80;99.90
5176;DHT22;2607;50.934;6.934;2023-11-19T04:20:47;11.80;99.90
5176;DHT22;2607;50.934;6.934;2023-11-19T04:23:13;11.80;99.90
5176;DHT22;2607;50.934;6.934;2023-11-19T04:25:38;11.80;99.90
5176;DHT22;2607;50.934;6.934;2023-11-19T04:28:04;11.80;99.90
5176;DHT22;2607;50.934;6.934;2023-11-19T04:30:29;11.80;99.90
5176;DHT22;2607;50.934;6.934;2023-11-19T04:32:57;11.80;99.90
5176;DHT22;2607;50.934;6.934;2023-11-19T04:35:22;11.80;99.90
5176;DHT22;2607;50.934;6.934;2023-11-19T04:37:48;11.80;99.90
5176;DHT22;2607;50.934;6.934;2023-11-19T04:40:14;11.80;99.90
5176;DHT22;2607;50.934;6.934;2023-11-19T04:42:40;11.80;99.90
5176;DHT22;2607;50.934;6.934;2023-11-19T04:45:06;11.80;99.90
5176;DHT22;2607;50.934;6.934;2023-11-19T04:47:33;11.80;99.90
5176;DHT22;2607;50.934;6.934;2023-11-19T04:49:58;11.80;99.90
5176;DHT22;2607;50.934;6.934;2023-11-19T04:52:24;11.80;99.90
5176;DHT22;2607;50.934;6.934;2023-11-19T04:54:49;11.80;99.90
5176;DHT22;2607;50.934;6.934;2023-11-19T04:57:15;11.80;99.90
5176;DHT22;2607;50.934;6.934;2023-11-19T04:59:41;11.80;99.90
5176;DHT22;2607;50.934;6.934;2023-11-19T05:02:07;11.80;99.90
5176;DHT22;2607;50.934;6.934;2023-11-19T05:04:33;11.80;99.90
5176;DHT22;2607;50.934;6.934;2023-11-19T05:06:59;11.80;99.90
5176;DHT22;2607;50.934;6.934;2023-11-19T05:09:24;11.70;99.90
5176;DHT22;2607;50.934;6.934;2023-11-19T05:11:50;11.70;99.90
5176;DHT22;2607;50.934;6.934;2023-11-19T05:14:15;11.70;99.90
5176;DHT22;2607;50.934;6.934;2023-11-19T05:16:41;11.70;99.90
5176;DHT22;2607;50.934;6.934;2023-11-19T05:19:08;11.70;99.90
5176;DHT22;2607;50.934;6.934;2023-11-19T05:21:34;11.70;99.90
5176;DHT22;2607;50.934;6.934;2023-11-19T05:24:02;11.70;99.90
5176;DHT22;2607;50.934;6.934;2023-11-19T05:26:30;11.70;99.90
5176;DHT22;2607;50.934;6.934;2023-11-19T05:28:56;11.60;99.90
5176;DHT22;2607;50.934;6.934;2023-11-19T05:31:21;11.60;99.90
5176;DHT22;2607;50.934;6.934;2023-11-19T05:33:47;11.60;99.90
5176;DHT22;2607;50.934;6.934;2023-11-19T05:36:13;11.50;99.90
5176;DHT22;2607;50.934;6.934;2023-11-19T05:38:38;11.50;99.90
5176;DHT22;2607;50.934;6.934;2023-11-19T05:41:04;11.40;99.90
5176;DHT22;2607;50.934;6.934;2023-11-19T05:43:30;11.40;99.90
5176;DHT22;2607;50.934;6.934;2023-11-19T05:45:56;11.40;99.90
5176;DHT22;2607;50.934;6.934;2023-11-19T05:48:22;11.40;99.90
5176;DHT22;2607;50.934;6.934;2023-11-19T05:50:48;11.40;99.90
5176;DHT22;2607;50.934;6.934;2023-11-19T05:53:15;11.30;99.90
5176;DHT22;2607;50.934;6.934;2023-11-19T05:55:41;11.30;99.90
5176;DHT22;2607;50.934;6.934;2023-11-19T05:58:14;11.30;99.90
5176;DHT22;2607;50.934;6.934;2023-11-19T06:00:40;11.30;99.90
5176;DHT22;2607;50.934;6.934;2023-11-19T06:03:08;11.30;99.90
5176;DHT22;2607;50.934;6.934;2023-11-19T06:05:34;11.20;99.90
5176;DHT22;2607;50.934;6.934;2023-11-19T06:07:59;11.20;99.90
5176;DHT22;2607;50.934;6.934;2023-11-19T06:10:25;11.20;99.90
5176;DHT22;2607;50.934;6.934;2023-11-19T06:12:59;11.20;99.90
5176;DHT22;2607;50.934;6.934;2023-11-19T06:15:30;11.10;99.90
5176;DHT22;2607;50.934;6.934;2023-11-19T06:17:56;11.10;99.90
5176;DHT22;2607;50.934;6.934;2023-11-19T06:20:23;11.10;99.90
5176;DHT22;2607;50.934;6.934;2023-11-19T06:22:49;11.10;99.90
5176;DHT22;2607;50.934;6.934;2023-11-19T06:25:15;11.10;99.90
5176;DHT22;2607;50.934;6.934;2023-11-19T06:27:41;11.10;99.90
5176;DHT22;2607;50.934;6.934;2023-11-19T06:30:07;11.10;99.90
5176;DHT22;2607;50.934;6.934;2023-11-19T06:32:34;11.10;99.90
5176;DHT22;2607;50.934;6.934;2023-11-19T06:34:59;11.10;99.90
5176;DHT22;2607;50.934;6.934;2023-11-19T06:37:25;11.10;99.90
5176;DHT22;2607;50.934;6.934;2023-11-19T06:39:50;11.10;99.90
5176;DHT22;2607;50.934;6.934;2023-11-19T06:42:16;11.10;99.90
5176;DHT22;2607;50.934;6.934;2023-11-19T06:44:42;11.10;99.90
5176;DHT22;2607;50.934;6.934;2023-11-19T06:47:08;11.10;99.90
5176;DHT22;2607;50.934;6.934;2023-11-19T06:49:33;11.10;99.90
5176;DHT22;2607;50.934;6.934;2023-11-19T06:51:59;11.10;99.90
5176;DHT22;2607;50.934;6.934;2023-11-19T06:54:24;11.10;99.90
5176;DHT22;2607;50.934;6.934;2023-11-19T06:56:50;11.10;99.90
5176;DHT22;2607;50.934;6.934;2023-11-19T06:59:16;11.10;99.90
5176;DHT22;2607;50.934;6.934;2023-11-19T07:01:42;11.10;99.90
5176;DHT22;2607;50.934;6.934;2023-11-19T07:04:11;11.10;99.90
5176;DHT22;2607;50.934;6.934;2023-11-19T07:06:38;11.00;99.90
5176;DHT22;2607;50.934;6.934;2023-11-19T07:09:04;11.10;99.90
5176;DHT22;2607;50.934;6.934;2023-11-19T07:11:41;11.00;99.90
5176;DHT22;2607;50.934;6.934;2023-11-19T07:14:08;11.00;99.90
5176;DHT22;2607;50.934;6.934;2023-11-19T07:16:34;11.00;99.90
5176;DHT22;2607;50.934;6.934;2023-11-19T07:19:03;11.00;99.90
5176;DHT22;2607;50.934;6.934;2023-11-19T07:21:30;11.00;99.90
5176;DHT22;2607;50.934;6.934;2023-11-19T07:23:56;11.00;99.90
5176;DHT22;2607;50.934;6.934;2023-11-19T07:26:22;11.00;99.90
5176;DHT22;2607;50.934;6.934;2023-11-19T07:28:49;10.90;99.90
5176;DHT22;2607;50.934;6.934;2023-11-19T07:31:15;11.00;99.90
5176;DHT22;2607;50.934;6.934;2023-11-19T07:33:41;11.00;99.90
5176;DHT22;2607;50.934;6.934;2023-11-19T07:36:10;11.00;99.90
5176;DHT22;2607;50.934;6.934;2023-11-19T07:38:36;11.00;99.90
5176;DHT22;2607;50.934;6.934;2023-11-19T07:41:02;11.00;99.90
5176;DHT22;2607;50.934;6.934;2023-11-19T07:43:27;11.00;99.90
5176;DHT22;2607;50.934;6.934;2023-11-19T07:45:53;11.00;99.90
5176;DHT22;2607;50.934;6.934;2023-11-19T07:48:18;11.00;99.90
5176;DHT22;2607;50.934;6.934;2023-11-19T07:50:49;11.00;99.90
5176;DHT22;2607;50.934;6.934;2023-11-19T07:53:18;11.00;99.90
5176;DHT22;2607;50.934;6.934;2023-11-19T07:55:43;10.90;99.90
5176;DHT22;2607;50.934;6.934;2023-11-19T07:58:12;10.90;99.90
5176;DHT22;2607;50.934;6.934;2023-11-19T08:00:38;10.90;99.90
5176;DHT22;2607;50.934;6.934;2023-11-19T08:03:04;10.90;99.90
5176;DHT22;2607;50.934;6.934;2023-11-19T08:05:31;10.90;99.90
5176;DHT22;2607;50.934;6.934;2023-11-19T08:07:56;10.90;99.90
5176;DHT22;2607;50.934;6.934;2023-11-19T08:10:22;10.90;99.90
5176;DHT22;2607;50.934;6.934;2023-11-19T08:12:48;10.80;99.90
5176;DHT22;2607;50.934;6.934;2023-11-19T08:15:14;10.80;99.90
5176;DHT22;2607;50.934;6.934;2023-11-19T08:17:40;10.80;99.90
5176;DHT22;2607;50.934;6.934;2023-11-19T08:20:06;10.80;99.90
5176;DHT22;2607;50.934;6.934;2023-11-19T08:22:36;10.80;99.90
5176;DHT22;2607;50.934;6.934;2023-11-19T08:25:02;10.80;99.90
5176;DHT22;2607;50.934;6.934;2023-11-19T08:27:28;10.80;99.90
5176;DHT22;2607;50.934;6.934;2023-11-19T08:29:54;10.90;99.90
5176;DHT22;2607;50.934;6.934;2023-11-19T08:32:23;10.90;99.90
5176;DHT22;2607;50.934;6.934;2023-11-19T08:34:49;10.90;99.90
5176;DHT22;2607;50.934;6.934;2023-11-19T08:37:14;10.90;99.90
5176;DHT22;2607;50.934;6.934;2023-11-19T08:39:40;11.00;99.90
5176;DHT22;2607;50.934;6.934;2023-11-19T08:42:07;11.00;99.90
5176;DHT22;2607;50.934;6.934;2023-11-19T08:44:33;11.00;99.90
5176;DHT22;2607;50.934;6.934;2023-11-19T08:46:58;11.00;99.90
5176;DHT22;2607;50.934;6.934;2023-11-19T08:49:24;11.00;99.90
5176;DHT22;2607;50.934;6.934;2023-11-19T08:51:49;11.00;99.90
5176;DHT22;2607;50.934;6.934;2023-11-19T08:54:15;11.00;99.90
5176;DHT22;2607;50.934;6.934;2023-11-19T08:56:40;11.00;99.90
5176;DHT22;2607;50.934;6.934;2023-11-19T08:59:06;11.10;99.90
5176;DHT22;2607;50.934;6.934;2023-11-19T09:01:32;11.10;99.90
5176;DHT22;2607;50.934;6.934;2023-11-19T09:03:57;11.10;99.90
5176;DHT22;2607;50.934;6.934;2023-11-19T09:06:23;11.10;99.90
5176;DHT22;2607;50.934;6.934;2023-11-19T09:08:48;11.10;99.90
5176;DHT22;2607;50.934;6.934;2023-11-19T09:11:14;11.20;99.90
5176;DHT22;2607;50.934;6.934;2023-11-19T09:13:39;11.20;99.90
5176;DHT22;2607;50.934;6.934;2023-11-19T09:16:05;11.20;99.90
5176;DHT22;2607;50.934;6.934;2023-11-19T09:18:31;11.20;99.90
5176;DHT22;2607;50.934;6.934;2023-11-19T09:20:57;11.20;99.90
5176;DHT22;2607;50.934;6.934;2023-11-19T09:23:23;11.20;99.90
5176;DHT22;2607;50.934;6.934;2023-11-19T09:25:50;11.20;99.90
5176;DHT22;2607;50.934;6.934;2023-11-19T09:28:16;11.20;99.90
5176;DHT22;2607;50.934;6.934;2023-11-19T09:30:41;11.30;99.90
5176;DHT22;2607;50.934;6.934;2023-11-19T09:33:07;11.30;99.90
5176;DHT22;2607;50.934;6.934;2023-11-19T09:35:33;11.30;99.90
5176;DHT22;2607;50.934;6.934;2023-11-19T09:37:58;11.30;99.90
5176;DHT22;2607;50.934;6.934;2023-11-19T09:40:24;11.30;99.90
5176;DHT22;2607;50.934;6.934;2023-11-19T09:42:51;11.30;99.90
5176;DHT22;2607;50.934;6.934;2023-11-19T09:45:17;11.30;99.90
5176;DHT22;2607;50.934;6.934;2023-11-19T09:47:46;11.40;99.90
5176;DHT22;2607;50.934;6.934;2023-11-19T09:50:19;11.50;99.90
5176;DHT22;2607;50.934;6.934;2023-11-19T09:52:48;11.50;99.90
5176;DHT22;2607;50.934;6.934;2023-11-19T09:55:14;11.60;99.90
5176;DHT22;2607;50.934;6.934;2023-11-19T09:57:40;11.60;99.90
5176;DHT22;2607;50.934;6.934;2023-11-19T10:00:07;11.70;99.90
5176;DHT22;2607;50.934;6.934;2023-11-19T10:02:35;11.70;99.90
5176;DHT22;2607;50.934;6.934;2023-11-19T10:05:04;11.70;99.90
5176;DHT22;2607;50.934;6.934;2023-11-19T10:07:31;11.70;99.90
5176;DHT22;2607;50.934;6.934;2023-11-19T10:09:59;11.80;99.90
5176;DHT22;2607;50.934;6.934;2023-11-19T10:12:26;11.80;99.90
5176;DHT22;2607;50.934;6.934;2023-11-19T10:14:54;11.90;99.90
5176;DHT22;2607;50.934;6.934;2023-11-19T10:17:21;11.90;99.90
5176;DHT22;2607;50.934;6.934;2023-11-19T10:19:47;11.90;99.90
5176;DHT22;2607;50.934;6.934;2023-11-19T10:22:12;11.90;99.90
5176;DHT22;2607;50.934;6.934;2023-11-19T10:24:40;11.90;99.90
5176;DHT22;2607;50.934;6.934;2023-11-19T10:27:09;12.00;99.90
5176;DHT22;2607;50.934;6.934;2023-11-19T10:29:37;12.00;99.90
5176;DHT22;2607;50.934;6.934;2023-11-19T10:32:03;12.10;99.90
5176;DHT22;2607;50.934;6.934;2023-11-19T10:34:29;12.10;99.90
5176;DHT22;2607;50.934;6.934;2023-11-19T10:36:55;12.10;99.90
5176;DHT22;2607;50.934;6.934;2023-11-19T10:39:21;12.10;99.90
5176;DHT22;2607;50.934;6.934;2023-11-19T10:41:46;12.20;99.90
5176;DHT22;2607;50.934;6.934;2023-11-19T10:44:12;12.20;99.90
5176;DHT22;2607;50.934;6.934;2023-11-19T10:46:39;12.20;99.90
5176;DHT22;2607;50.934;6.934;2023-11-19T10:49:05;12.20;99.90
5176;DHT22;2607;50.934;6.934;2023-11-19T10:51:32;12.20;99.90
5176;DHT22;2607;50.934;6.934;2023-11-19T10:54:03;12.20;99.90
5176;DHT22;2607;50.934;6.934;2023-11-19T10:56:33;12.20;99.90
5176;DHT22;2607;50.934;6.934;2023-11-19T10:59:00;12.20;99.90
5176;DHT22;2607;50.934;6.934;2023-11-19T11:01:31;12.20;99.90
5176;DHT22;2607;50.934;6.934;2023-11-19T11:03:59;12.20;99.90
5176;DHT22;2607;50.934;6.934;2023-11-19T11:06:26;12.20;99.90
5176;DHT22;2607;50.934;6.934;2023-11-19T11:08:53;12.20;99.90
5176;DHT22;2607;50.934;6.934;2023-11-19T11:11:19;12.20;99.90
5176;DHT22;2607;50.934;6.934;2023-11-19T11:13:50;12.20;99.90
5176;DHT22;2607;50.934;6.934;2023-11-19T11:16:18;12.10;99.90
5176;DHT22;2607;50.934;6.934;2023-11-19T11:18:48;12.10;99.90
5176;DHT22;2607;50.934;6.934;2023-11-19T11:21:23;12.10;99.90
5176;DHT22;2607;50.934;6.934;2023-11-19T11:27:02;12.00;99.90
5176;DHT22;2607;50.934;6.934;2023-11-19T11:29:54;12.00;99.90
5176;DHT22;2607;50.934;6.934;2023-11-19T11:38:14;11.90;99.90
5176;DHT22;2607;50.934;6.934;2023-11-19T11:40:41;11.90;99.90
5176;DHT22;2607;50.934;6.934;2023-11-19T11:49:04;11.90;99.90
5176;DHT22;2607;50.934;6.934;2023-11-19T11:54:09;11.90;99.90
5176;DHT22;2607;50.934;6.934;2023-11-19T11:56:37;11.90;99.90
5176;DHT22;2607;50.934;6.934;2023-11-19T11:59:07;11.90;99.90
5176;DHT22;2607;50.934;6.934;2023-11-19T12:01:32;11.90;99.90
5176;DHT22;2607;50.934;6.934;2023-11-19T12:03:58;11.90;99.90
5176;DHT22;2607;50.934;6.934;2023-11-19T12:06:23;11.90;99.90
5176;DHT22;2607;50.934;6.934;2023-11-19T12:08:50;12.00;99.90
5176;DHT22;2607;50.934;6.934;2023-11-19T12:11:16;12.00;99.90
5176;DHT22;2607;50.934;6.934;2023-11-19T12:13:56;12.10;99.90
5176;DHT22;2607;50.934;6.934;2023-11-19T12:16:24;12.10;99.90
5176;DHT22;2607;50.934;6.934;2023-11-19T12:18:49;12.20;99.90
5176;DHT22;2607;50.934;6.934;2023-11-19T12:21:28;12.20;99.90
5176;DHT22;2607;50.934;6.934;2023-11-19T12:23:55;12.20;99.90
5176;DHT22;2607;50.934;6.934;2023-11-19T12:26:36;12.30;99.90
5176;DHT22;2607;50.934;6.934;2023-11-19T12:29:02;12.30;99.90
5176;DHT22;2607;50.934;6.934;2023-11-19T12:31:31;12.30;99.90
5176;DHT22;2607;50.934;6.934;2023-11-19T12:33:57;12.30;99.90
5176;DHT22;2607;50.934;6.934;2023-11-19T12:36:23;12.40;99.90
5176;DHT22;2607;50.934;6.934;2023-11-19T12:38:48;12.40;99.90
5176;DHT22;2607;50.934;6.934;2023-11-19T12:41:14;12.50;99.90
5176;DHT22;2607;50.934;6.934;2023-11-19T12:43:43;12.50;99.90
5176;DHT22;2607;50.934;6.934;2023-11-19T12:46:22;12.50;99.90
5176;DHT22;2607;50.934;6.934;2023-11-19T12:48:48;12.50;99.90
5176;DHT22;2607;50.934;6.934;2023-11-19T12:51:14;12.50;99.90
5176;DHT22;2607;50.934;6.934;2023-11-19T12:53:52;12.50;99.90
5176;DHT22;2607;50.934;6.934;2023-11-19T12:56:23;12.50;99.90
5176;DHT22;2607;50.934;6.934;2023-11-19T12:58:49;12.40;99.90
5176;DHT22;2607;50.934;6.934;2023-11-19T13:01:17;12.50;99.90
5176;DHT22;2607;50.934;6.934;2023-11-19T13:03:43;12.50;99.90
5176;DHT22;2607;50.934;6.934;2023-11-19T13:06:11;12.40;99.90
5176;DHT22;2607;50.934;6.934;2023-11-19T13:08:37;12.40;99.90
5176;DHT22;2607;50.934;6.934;2023-11-19T13:11:03;12.40;99.90
5176;DHT22;2607;50.934;6.934;2023-11-19T13:13:29;12.40;99.90
5176;DHT22;2607;50.934;6.934;2023-11-19T13:16:02;12.40;99.90
5176;DHT22;2607;50.934;6.934;2023-11-19T13:18:29;12.40;99.90
5176;DHT22;2607;50.934;6.934;2023-11-19T13:20:54;12.40;99.90
5176;DHT22;2607;50.934;6.934;2023-11-19T13:23:22;12.50;99.90
5176;DHT22;2607;50.934;6.934;2023-11-19T13:25:48;12.40;99.90
5176;DHT22;2607;50.934;6.934;2023-11-19T13:28:14;12.50;99.90
5176;DHT22;2607;50.934;6.934;2023-11-19T13:30:40;12.50;99.90
5176;DHT22;2607;50.934;6.934;2023-11-19T13:33:05;12.50;99.90
5176;DHT22;2607;50.934;6.934;2023-11-19T13:35:31;12.50;99.90
5176;DHT22;2607;50.934;6.934;2023-11-19T13:37:56;12.50;99.90
5176;DHT22;2607;50.934;6.934;2023-11-19T13:40:22;12.50;99.90
5176;DHT22;2607;50.934;6.934;2023-11-19T13:42:49;12.50;99.90
5176;DHT22;2607;50.934;6.934;2023-11-19T13:45:16;12.50;99.90
5176;DHT22;2607;50.934;6.934;2023-11-19T13:47:45;12.50;99.90
5176;DHT22;2607;50.934;6.934;2023-11-19T13:50:13;12.50;99.90
5176;DHT22;2607;50.934;6.934;2023-11-19T13:52:40;12.50;99.90
5176;DHT22;2607;50.934;6.934;2023-11-19T13:55:07;12.50;99.90
5176;DHT22;2607;50.934;6.934;2023-11-19T13:57:34;12.50;99.90
5176;DHT22;2607;50.934;6.934;2023-11-19T14:00:01;12.60;99.90
5176;DHT22;2607;50.934;6.934;2023-11-19T14:02:30;12.50;99.90
5176;DHT22;2607;50.934;6.934;2023-11-19T14:04:55;12.50;99.90
5176;DHT22;2607;50.934;6.934;2023-11-19T14:07:21;12.50;99.90
5176;DHT22;2607;50.934;6.934;2023-11-19T14:09:47;12.50;99.90
5176;DHT22;2607;50.934;6.934;2023-11-19T14:12:12;12.50;99.90
5176;DHT22;2607;50.934;6.934;2023-11-19T14:14:38;12.60;99.90
5176;DHT22;2607;50.934;6.934;2023-11-19T14:17:05;12.50;99.90
5176;DHT22;2607;50.934;6.934;2023-11-19T14:19:30;12.50;99.90
5176;DHT22;2607;50.934;6.934;2023-11-19T14:21:56;12.40;99.90
5176;DHT22;2607;50.934;6.934;2023-11-19T14:24:21;12.40;99.90
5176;DHT22;2607;50.934;6.934;2023-11-19T14:26:47;12.40;99.90
5176;DHT22;2607;50.934;6.934;2023-11-19T14:29:14;12.40;99.90
5176;DHT22;2607;50.934;6.934;2023-11-19T14:31:39;12.40;99.90
5176;DHT22;2607;50.934;6.934;2023-11-19T14:34:05;12.40;99.90
5176;DHT22;2607;50.934;6.934;2023-11-19T14:36:30;12.40;99.90
5176;DHT22;2607;50.934;6.934;2023-11-19T14:38:56;12.40;99.90
5176;DHT22;2607;50.934;6.934;2023-11-19T14:41:24;12.40;99.90
5176;DHT22;2607;50.934;6.934;2023-11-19T14:43:50;12.40;99.90
5176;DHT22;2607;50.934;6.934;2023-11-19T14:46:15;12.40;99.90
5176;DHT22;2607;50.934;6.934;2023-11-19T14:48:41;12.40;99.90
5176;DHT22;2607;50.934;6.934;2023-11-19T14:51:06;12.30;99.90
5176;DHT22;2607;50.934;6.934;2023-11-19T14:53:32;12.30;99.90
5176;DHT22;2607;50.934;6.934;2023-11-19T14:55:58;12.30;99.90
5176;DHT22;2607;50.934;6.934;2023-11-19T14:58:24;12.30;99.90
5176;DHT22;2607;50.934;6.934;2023-11-19T15:00:51;12.30;99.90
5176;DHT22;2607;50.934;6.934;2023-11-19T15:03:17;12.30;99.90
5176;DHT22;2607;50.934;6.934;2023-11-19T15:05:45;12.20;99.90
5176;DHT22;2607;50.934;6.934;2023-11-19T15:08:14;12.20;99.90
5176;DHT22;2607;50.934;6.934;2023-11-19T15:10:41;12.10;99.90
5176;DHT22;2607;50.934;6.934;2023-11-19T15:13:07;12.20;99.90
5176;DHT22;2607;50.934;6.934;2023-11-19T15:15:34;12.20;99.90
5176;DHT22;2607;50.934;6.934;2023-11-19T15:18:00;12.10;99.90
5176;DHT22;2607;50.934;6.934;2023-11-19T15:20:26;12.10;99.90
5176;DHT22;2607;50.934;6.934;2023-11-19T15:22:55;12.10;99.90
5176;DHT22;2607;50.934;6.934;2023-11-19T15:25:21;12.00;99.90
5176;DHT22;2607;50.934;6.934;2023-11-19T15:27:48;12.00;99.90
5176;DHT22;2607;50.934;6.934;2023-11-19T15:30:13;12.00;99.90
5176;DHT22;2607;50.934;6.934;2023-11-19T15:32:39;12.00;99.90
5176;DHT22;2607;50.934;6.934;2023-11-19T15:35:06;12.00;99.90
5176;DHT22;2607;50.934;6.934;2023-11-19T15:37:36;11.90;99.90
5176;DHT22;2607;50.934;6.934;2023-11-19T15:40:03;11.90;99.90
5176;DHT22;2607;50.934;6.934;2023-11-19T15:42:31;11.90;99.90
5176;DHT22;2607;50.934;6.934;2023-11-19T15:44:57;11.90;99.90
5176;DHT22;2607;50.934;6.934;2023-11-19T15:47:22;11.80;99.90
5176;DHT22;2607;50.934;6.934;2023-11-19T15:49:48;11.80;99.90
5176;DHT22;2607;50.934;6.934;2023-11-19T15:52:15;11.70;99.90
5176;DHT22;2607;50.934;6.934;2023-11-19T15:54:41;11.70;99.90
5176;DHT22;2607;50.934;6.934;2023-11-19T15:57:07;11.70;99.90
5176;DHT22;2607;50.934;6.934;2023-11-19T15:59:32;11.60;99.90
5176;DHT22;2607;50.934;6.934;2023-11-19T16:01:58;11.60;99.90
5176;DHT22;2607;50.934;6.934;2023-11-19T16:04:24;11.60;99.90
5176;DHT22;2607;50.934;6.934;2023-11-19T16:06:49;11.60;99.90
5176;DHT22;2607;50.934;6.934;2023-11-19T16:09:15;11.50;99.90
5176;DHT22;2607;50.934;6.934;2023-11-19T16:11:44;11.50;99.90
5176;DHT22;2607;50.934;6.934;2023-11-19T16:14:10;11.50;99.90
5176;DHT22;2607;50.934;6.934;2023-11-19T16:16:36;11.50;99.90